sensor_id;sensor_type;location;lat;lon;timestamp;P1;durP1;ratioP1;P2;durP2;ratioP2
57655;SDS011;43482;53.334;6.744;2022-07-30T00:00:46;3.13;;;1.50;;
57655;SDS011;43482;53.334;6.744;2022-07-30T00:03:11;2.22;;;1.35;;
57655;SDS011;43482;53.334;6.744;2022-07-30T00:05:37;2.65;;;2.00;;
57655;SDS011;43482;53.334;6.744;2022-07-30T00:08:02;4.00;;;1.75;;
57655;SDS011;43482;53.334;6.744;2022-07-30T00:10:28;6.22;;;2.10;;
57655;SDS011;43482;53.334;6.744;2022-07-30T00:12:53;3.78;;;1.88;;
57655;SDS011;43482;53.334;6.744;2022-07-30T00:15:19;2.70;;;2.00;;
57655;SDS011;43482;53.334;6.744;2022-07-30T00:17:44;4.80;;;1.80;;
57655;SDS011;43482;53.334;6.744;2022-07-30T00:20:10;1.77;;;1.27;;
57655;SDS011;43482;53.334;6.744;2022-07-30T00:22:35;2.95;;;1.77;;
57655;SDS011;43482;53.334;6.744;2022-07-30T00:25:01;2.70;;;1.63;;
57655;SDS011;43482;53.334;6.744;2022-07-30T00:27:26;3.30;;;1.90;;
57655;SDS011;43482;53.334;6.744;2022-07-30T00:29:52;2.28;;;1.60;;
57655;SDS011;43482;53.334;6.744;2022-07-30T00:32:17;2.10;;;1.38;;
57655;SDS011;43482;53.334;6.744;2022-07-30T00:34:43;2.67;;;2.05;;
57655;SDS011;43482;53.334;6.744;2022-07-30T00:37:08;7.53;;;1.95;;
57655;SDS011;43482;53.334;6.744;2022-07-30T00:39:33;2.40;;;1.85;;
57655;SDS011;43482;53.334;6.744;2022-07-30T00:42:00;5.05;;;1.83;;
57655;SDS011;43482;53.334;6.744;2022-07-30T00:44:27;2.30;;;1.83;;
57655;SDS011;43482;53.334;6.744;2022-07-30T00:46:53;2.55;;;1.65;;
57655;SDS011;43482;53.334;6.744;2022-07-30T00:49:19;2.22;;;1.20;;
57655;SDS011;43482;53.334;6.744;2022-07-30T00:51:45;3.50;;;1.55;;
57655;SDS011;43482;53.334;6.744;2022-07-30T00:54:11;3.88;;;1.92;;
57655;SDS011;43482;53.334;6.744;2022-07-30T00:56:36;2.20;;;1.60;;
57655;SDS011;43482;53.334;6.744;2022-07-30T00:59:02;5.00;;;1.80;;
57655;SDS011;43482;53.334;6.744;2022-07-30T01:01:30;3.47;;;2.00;;
57655;SDS011;43482;53.334;6.744;2022-07-30T01:03:56;3.45;;;2.00;;
57655;SDS011;43482;53.334;6.744;2022-07-30T01:06:21;2.53;;;1.85;;
57655;SDS011;43482;53.334;6.744;2022-07-30T01:08:46;1.65;;;1.40;;
57655;SDS011;43482;53.334;6.744;2022-07-30T01:11:12;4.55;;;2.40;;
57655;SDS011;43482;53.334;6.744;2022-07-30T01:13:37;2.60;;;1.90;;
57655;SDS011;43482;53.334;6.744;2022-07-30T01:16:03;4.25;;;2.35;;
57655;SDS011;43482;53.334;6.744;2022-07-30T01:18:28;3.17;;;1.67;;
57655;SDS011;43482;53.334;6.744;2022-07-30T01:21:17;3.38;;;1.50;;
57655;SDS011;43482;53.334;6.744;2022-07-30T01:23:49;3.95;;;2.13;;
57655;SDS011;43482;53.334;6.744;2022-07-30T01:26:17;2.63;;;2.08;;
57655;SDS011;43482;53.334;6.744;2022-07-30T01:28:46;2.42;;;1.88;;
57655;SDS011;43482;53.334;6.744;2022-07-30T01:31:14;3.28;;;2.35;;
57655;SDS011;43482;53.334;6.744;2022-07-30T01:33:42;2.13;;;1.83;;
57655;SDS011;43482;53.334;6.744;2022-07-30T01:36:11;2.65;;;2.05;;
57655;SDS011;43482;53.334;6.744;2022-07-30T01:38:39;2.83;;;1.67;;
57655;SDS011;43482;53.334;6.744;2022-07-30T01:41:07;3.65;;;2.40;;
57655;SDS011;43482;53.334;6.744;2022-07-30T01:43:33;1.98;;;1.35;;
57655;SDS011;43482;53.334;6.744;2022-07-30T01:46:00;4.40;;;2.55;;
57655;SDS011;43482;53.334;6.744;2022-07-30T01:48:26;6.85;;;2.90;;
57655;SDS011;43482;53.334;6.744;2022-07-30T01:50:53;4.43;;;2.63;;
57655;SDS011;43482;53.334;6.744;2022-07-30T01:53:21;3.17;;;2.38;;
57655;SDS011;43482;53.334;6.744;2022-07-30T01:55:49;3.15;;;2.00;;
57655;SDS011;43482;53.334;6.744;2022-07-30T01:58:16;2.38;;;1.55;;
57655;SDS011;43482;53.334;6.744;2022-07-30T02:00:45;2.20;;;1.35;;
57655;SDS011;43482;53.334;6.744;2022-07-30T02:03:13;2.85;;;2.40;;
57655;SDS011;43482;53.334;6.744;2022-07-30T02:05:39;3.30;;;1.83;;
57655;SDS011;43482;53.334;6.744;2022-07-30T02:11:03;3.20;;;2.00;;
57655;SDS011;43482;53.334;6.744;2022-07-30T02:13:37;5.53;;;2.45;;
57655;SDS011;43482;53.334;6.744;2022-07-30T02:16:21;4.45;;;1.80;;
57655;SDS011;43482;53.334;6.744;2022-07-30T02:21:27;1.92;;;1.35;;
57655;SDS011;43482;53.334;6.744;2022-07-30T02:23:58;2.35;;;1.38;;
57655;SDS011;43482;53.334;6.744;2022-07-30T02:26:26;2.28;;;1.65;;
57655;SDS011;43482;53.334;6.744;2022-07-30T02:28:54;2.90;;;1.50;;
57655;SDS011;43482;53.334;6.744;2022-07-30T02:31:24;2.00;;;1.52;;
57655;SDS011;43482;53.334;6.744;2022-07-30T02:33:53;3.50;;;1.92;;
57655;SDS011;43482;53.334;6.744;2022-07-30T02:36:22;2.40;;;1.63;;
57655;SDS011;43482;53.334;6.744;2022-07-30T02:38:49;3.10;;;1.90;;
57655;SDS011;43482;53.334;6.744;2022-07-30T02:41:16;2.38;;;1.30;;
57655;SDS011;43482;53.334;6.744;2022-07-30T02:43:44;2.58;;;1.88;;
57655;SDS011;43482;53.334;6.744;2022-07-30T02:46:12;4.28;;;1.90;;
57655;SDS011;43482;53.334;6.744;2022-07-30T02:48:40;2.20;;;1.33;;
57655;SDS011;43482;53.334;6.744;2022-07-30T02:51:06;3.75;;;1.95;;
57655;SDS011;43482;53.334;6.744;2022-07-30T02:53:33;3.15;;;2.17;;
57655;SDS011;43482;53.334;6.744;2022-07-30T02:55:58;2.63;;;1.70;;
57655;SDS011;43482;53.334;6.744;2022-07-30T02:58:26;3.78;;;1.45;;
57655;SDS011;43482;53.334;6.744;2022-07-30T03:00:52;2.88;;;1.40;;
57655;SDS011;43482;53.334;6.744;2022-07-30T03:03:19;2.88;;;1.63;;
57655;SDS011;43482;53.334;6.744;2022-07-30T03:05:48;2.05;;;1.33;;
57655;SDS011;43482;53.334;6.744;2022-07-30T03:08:15;2.00;;;1.67;;
57655;SDS011;43482;53.334;6.744;2022-07-30T03:10:41;1.58;;;1.00;;
57655;SDS011;43482;53.334;6.744;2022-07-30T03:13:08;2.28;;;1.60;;
57655;SDS011;43482;53.334;6.744;2022-07-30T03:15:36;2.08;;;1.27;;
57655;SDS011;43482;53.334;6.744;2022-07-30T03:18:06;2.65;;;1.60;;
57655;SDS011;43482;53.334;6.744;2022-07-30T03:20:37;4.30;;;1.92;;
57655;SDS011;43482;53.334;6.744;2022-07-30T03:23:04;3.67;;;1.95;;
57655;SDS011;43482;53.334;6.744;2022-07-30T03:25:31;2.45;;;1.40;;
57655;SDS011;43482;53.334;6.744;2022-07-30T03:27:57;1.08;;;0.88;;
57655;SDS011;43482;53.334;6.744;2022-07-30T03:30:24;2.40;;;2.00;;
57655;SDS011;43482;53.334;6.744;2022-07-30T03:32:52;1.80;;;1.27;;
57655;SDS011;43482;53.334;6.744;2022-07-30T03:35:19;3.95;;;1.73;;
57655;SDS011;43482;53.334;6.744;2022-07-30T03:37:46;2.50;;;1.80;;
57655;SDS011;43482;53.334;6.744;2022-07-30T03:40:12;2.45;;;1.80;;
57655;SDS011;43482;53.334;6.744;2022-07-30T03:42:39;2.63;;;1.95;;
57655;SDS011;43482;53.334;6.744;2022-07-30T03:45:05;1.75;;;1.30;;
57655;SDS011;43482;53.334;6.744;2022-07-30T03:47:33;2.03;;;1.70;;
57655;SDS011;43482;53.334;6.744;2022-07-30T03:50:02;3.00;;;1.80;;
57655;SDS011;43482;53.334;6.744;2022-07-30T03:52:28;1.80;;;1.65;;
57655;SDS011;43482;53.334;6.744;2022-07-30T03:54:57;2.88;;;1.83;;
57655;SDS011;43482;53.334;6.744;2022-07-30T03:57:24;2.75;;;2.10;;
57655;SDS011;43482;53.334;6.744;2022-07-30T03:59:49;5.47;;;2.33;;
57655;SDS011;43482;53.334;6.744;2022-07-30T04:02:15;2.90;;;1.52;;
57655;SDS011;43482;53.334;6.744;2022-07-30T04:04:41;1.85;;;1.20;;
57655;SDS011;43482;53.334;6.744;2022-07-30T04:07:07;1.88;;;1.58;;
57655;SDS011;43482;53.334;6.744;2022-07-30T04:09:33;2.05;;;1.25;;
57655;SDS011;43482;53.334;6.744;2022-07-30T04:11:59;1.73;;;1.55;;
57655;SDS011;43482;53.334;6.744;2022-07-30T04:14:24;1.92;;;1.48;;
57655;SDS011;43482;53.334;6.744;2022-07-30T04:17:01;2.00;;;1.67;;
57655;SDS011;43482;53.334;6.744;2022-07-30T04:19:33;2.05;;;1.50;;
57655;SDS011;43482;53.334;6.744;2022-07-30T04:22:02;3.67;;;1.95;;
57655;SDS011;43482;53.334;6.744;2022-07-30T04:24:30;2.47;;;1.90;;
57655;SDS011;43482;53.334;6.744;2022-07-30T04:26:57;2.15;;;1.67;;
57655;SDS011;43482;53.334;6.744;2022-07-30T04:29:24;3.67;;;2.13;;
57655;SDS011;43482;53.334;6.744;2022-07-30T04:31:50;3.15;;;1.45;;
57655;SDS011;43482;53.334;6.744;2022-07-30T04:34:17;2.45;;;1.58;;
57655;SDS011;43482;53.334;6.744;2022-07-30T04:36:43;4.55;;;1.88;;
57655;SDS011;43482;53.334;6.744;2022-07-30T04:39:08;3.28;;;1.42;;
57655;SDS011;43482;53.334;6.744;2022-07-30T04:41:35;3.30;;;1.63;;
57655;SDS011;43482;53.334;6.744;2022-07-30T04:44:00;2.53;;;1.23;;
57655;SDS011;43482;53.334;6.744;2022-07-30T04:46:26;1.95;;;1.70;;
57655;SDS011;43482;53.334;6.744;2022-07-30T04:48:51;1.75;;;1.48;;
57655;SDS011;43482;53.334;6.744;2022-07-30T04:51:27;2.35;;;1.52;;
57655;SDS011;43482;53.334;6.744;2022-07-30T04:53:56;4.72;;;2.88;;
57655;SDS011;43482;53.334;6.744;2022-07-30T04:56:23;14.05;;;3.00;;
57655;SDS011;43482;53.334;6.744;2022-07-30T04:58:50;3.42;;;2.28;;
57655;SDS011;43482;53.334;6.744;2022-07-30T05:01:26;2.63;;;1.58;;
57655;SDS011;43482;53.334;6.744;2022-07-30T05:06:24;2.40;;;1.50;;
57655;SDS011;43482;53.334;6.744;2022-07-30T05:08:50;2.33;;;1.63;;
57655;SDS011;43482;53.334;6.744;2022-07-30T05:11:16;2.50;;;1.40;;
57655;SDS011;43482;53.334;6.744;2022-07-30T05:13:42;3.97;;;1.98;;
57655;SDS011;43482;53.334;6.744;2022-07-30T05:16:14;2.30;;;1.63;;
57655;SDS011;43482;53.334;6.744;2022-07-30T05:18:40;2.80;;;1.95;;
57655;SDS011;43482;53.334;6.744;2022-07-30T05:21:05;4.70;;;2.10;;
57655;SDS011;43482;53.334;6.744;2022-07-30T05:23:31;2.92;;;1.77;;
57655;SDS011;43482;53.334;6.744;2022-07-30T05:25:57;4.20;;;2.88;;
57655;SDS011;43482;53.334;6.744;2022-07-30T05:28:23;4.57;;;2.40;;
57655;SDS011;43482;53.334;6.744;2022-07-30T05:30:51;4.10;;;2.30;;
57655;SDS011;43482;53.334;6.744;2022-07-30T05:33:20;3.97;;;2.60;;
57655;SDS011;43482;53.334;6.744;2022-07-30T05:35:46;4.38;;;2.65;;
57655;SDS011;43482;53.334;6.744;2022-07-30T05:38:12;6.15;;;2.80;;
57655;SDS011;43482;53.334;6.744;2022-07-30T05:40:38;2.67;;;2.45;;
57655;SDS011;43482;53.334;6.744;2022-07-30T05:43:03;2.63;;;1.98;;
57655;SDS011;43482;53.334;6.744;2022-07-30T05:45:29;4.38;;;2.35;;
57655;SDS011;43482;53.334;6.744;2022-07-30T05:47:54;3.95;;;2.72;;
57655;SDS011;43482;53.334;6.744;2022-07-30T05:50:20;3.75;;;2.65;;
57655;SDS011;43482;53.334;6.744;2022-07-30T05:52:45;3.65;;;1.90;;
57655;SDS011;43482;53.334;6.744;2022-07-30T05:55:10;4.32;;;2.40;;
57655;SDS011;43482;53.334;6.744;2022-07-30T05:57:36;4.07;;;2.10;;
57655;SDS011;43482;53.334;6.744;2022-07-30T06:00:05;4.28;;;3.63;;
57655;SDS011;43482;53.334;6.744;2022-07-30T06:02:32;3.33;;;1.63;;
57655;SDS011;43482;53.334;6.744;2022-07-30T06:04:57;3.40;;;1.90;;
57655;SDS011;43482;53.334;6.744;2022-07-30T06:07:22;5.00;;;2.88;;
57655;SDS011;43482;53.334;6.744;2022-07-30T06:09:48;4.68;;;2.97;;
57655;SDS011;43482;53.334;6.744;2022-07-30T06:12:13;4.95;;;2.55;;
57655;SDS011;43482;53.334;6.744;2022-07-30T06:14:39;5.07;;;3.05;;
57655;SDS011;43482;53.334;6.744;2022-07-30T06:17:04;3.67;;;2.72;;
57655;SDS011;43482;53.334;6.744;2022-07-30T06:19:30;9.40;;;3.03;;
57655;SDS011;43482;53.334;6.744;2022-07-30T06:21:55;3.65;;;2.75;;
57655;SDS011;43482;53.334;6.744;2022-07-30T06:24:20;3.60;;;2.53;;
57655;SDS011;43482;53.334;6.744;2022-07-30T06:26:46;6.00;;;3.55;;
57655;SDS011;43482;53.334;6.744;2022-07-30T06:29:11;7.40;;;3.83;;
57655;SDS011;43482;53.334;6.744;2022-07-30T06:31:37;5.50;;;3.97;;
57655;SDS011;43482;53.334;6.744;2022-07-30T06:34:04;7.45;;;2.35;;
57655;SDS011;43482;53.334;6.744;2022-07-30T06:36:29;3.58;;;3.00;;
57655;SDS011;43482;53.334;6.744;2022-07-30T06:38:55;8.68;;;3.55;;
57655;SDS011;43482;53.334;6.744;2022-07-30T06:41:20;5.45;;;4.13;;
57655;SDS011;43482;53.334;6.744;2022-07-30T06:43:45;4.68;;;2.83;;
57655;SDS011;43482;53.334;6.744;2022-07-30T06:46:11;6.28;;;3.75;;
57655;SDS011;43482;53.334;6.744;2022-07-30T06:48:36;4.97;;;3.08;;
57655;SDS011;43482;53.334;6.744;2022-07-30T06:51:02;6.43;;;3.45;;
57655;SDS011;43482;53.334;6.744;2022-07-30T06:53:27;5.43;;;3.20;;
57655;SDS011;43482;53.334;6.744;2022-07-30T06:55:52;6.65;;;3.22;;
57655;SDS011;43482;53.334;6.744;2022-07-30T06:58:18;5.40;;;3.65;;
57655;SDS011;43482;53.334;6.744;2022-07-30T07:00:43;4.13;;;2.25;;
57655;SDS011;43482;53.334;6.744;2022-07-30T07:03:09;6.00;;;3.17;;
57655;SDS011;43482;53.334;6.744;2022-07-30T07:05:35;5.40;;;3.10;;
57655;SDS011;43482;53.334;6.744;2022-07-30T07:08:00;4.38;;;2.50;;
57655;SDS011;43482;53.334;6.744;2022-07-30T07:10:26;5.75;;;3.10;;
57655;SDS011;43482;53.334;6.744;2022-07-30T07:12:51;7.13;;;3.17;;
57655;SDS011;43482;53.334;6.744;2022-07-30T07:15:16;4.53;;;3.05;;
57655;SDS011;43482;53.334;6.744;2022-07-30T07:17:42;3.13;;;2.50;;
57655;SDS011;43482;53.334;6.744;2022-07-30T07:20:08;6.22;;;3.70;;
57655;SDS011;43482;53.334;6.744;2022-07-30T07:22:33;4.57;;;3.65;;
57655;SDS011;43482;53.334;6.744;2022-07-30T07:24:59;5.78;;;3.55;;
57655;SDS011;43482;53.334;6.744;2022-07-30T07:27:24;4.20;;;2.78;;
57655;SDS011;43482;53.334;6.744;2022-07-30T07:29:50;4.05;;;2.53;;
57655;SDS011;43482;53.334;6.744;2022-07-30T07:32:15;4.40;;;2.42;;
57655;SDS011;43482;53.334;6.744;2022-07-30T07:34:41;3.60;;;2.50;;
57655;SDS011;43482;53.334;6.744;2022-07-30T07:37:06;3.50;;;3.00;;
57655;SDS011;43482;53.334;6.744;2022-07-30T07:39:31;3.95;;;2.15;;
57655;SDS011;43482;53.334;6.744;2022-07-30T07:41:57;6.05;;;2.25;;
57655;SDS011;43482;53.334;6.744;2022-07-30T07:44:22;3.58;;;3.08;;
57655;SDS011;43482;53.334;6.744;2022-07-30T07:46:47;4.82;;;2.72;;
57655;SDS011;43482;53.334;6.744;2022-07-30T07:49:13;4.60;;;2.38;;
57655;SDS011;43482;53.334;6.744;2022-07-30T07:51:38;5.50;;;2.33;;
57655;SDS011;43482;53.334;6.744;2022-07-30T07:54:04;5.32;;;2.15;;
57655;SDS011;43482;53.334;6.744;2022-07-30T07:56:29;3.53;;;2.33;;
57655;SDS011;43482;53.334;6.744;2022-07-30T07:58:55;5.65;;;2.20;;
57655;SDS011;43482;53.334;6.744;2022-07-30T08:01:21;4.18;;;2.05;;
57655;SDS011;43482;53.334;6.744;2022-07-30T08:03:46;2.17;;;1.80;;
57655;SDS011;43482;53.334;6.744;2022-07-30T08:06:12;3.75;;;2.00;;
57655;SDS011;43482;53.334;6.744;2022-07-30T08:08:37;3.92;;;2.00;;
57655;SDS011;43482;53.334;6.744;2022-07-30T08:11:03;4.63;;;1.80;;
57655;SDS011;43482;53.334;6.744;2022-07-30T08:13:30;3.10;;;1.75;;
57655;SDS011;43482;53.334;6.744;2022-07-30T08:15:56;3.17;;;1.50;;
57655;SDS011;43482;53.334;6.744;2022-07-30T08:18:22;3.50;;;1.85;;
57655;SDS011;43482;53.334;6.744;2022-07-30T08:20:48;2.40;;;1.27;;
57655;SDS011;43482;53.334;6.744;2022-07-30T08:23:14;5.85;;;1.67;;
57655;SDS011;43482;53.334;6.744;2022-07-30T08:25:39;1.90;;;1.10;;
57655;SDS011;43482;53.334;6.744;2022-07-30T08:28:05;1.75;;;1.05;;
57655;SDS011;43482;53.334;6.744;2022-07-30T08:30:30;5.03;;;1.52;;
57655;SDS011;43482;53.334;6.744;2022-07-30T08:32:56;2.97;;;1.45;;
57655;SDS011;43482;53.334;6.744;2022-07-30T08:35:21;4.20;;;1.15;;
57655;SDS011;43482;53.334;6.744;2022-07-30T08:37:47;5.97;;;1.50;;
57655;SDS011;43482;53.334;6.744;2022-07-30T08:40:12;4.80;;;1.45;;
57655;SDS011;43482;53.334;6.744;2022-07-30T08:42:38;3.25;;;1.48;;
57655;SDS011;43482;53.334;6.744;2022-07-30T08:45:03;3.22;;;1.40;;
57655;SDS011;43482;53.334;6.744;2022-07-30T08:47:31;3.08;;;1.45;;
57655;SDS011;43482;53.334;6.744;2022-07-30T08:49:57;3.40;;;1.65;;
57655;SDS011;43482;53.334;6.744;2022-07-30T08:52:28;2.78;;;1.17;;
57655;SDS011;43482;53.334;6.744;2022-07-30T08:54:56;1.55;;;1.08;;
57655;SDS011;43482;53.334;6.744;2022-07-30T08:57:22;2.60;;;1.52;;
57655;SDS011;43482;53.334;6.744;2022-07-30T08:59:48;2.25;;;1.23;;
57655;SDS011;43482;53.334;6.744;2022-07-30T09:02:15;2.83;;;1.27;;
57655;SDS011;43482;53.334;6.744;2022-07-30T09:04:41;1.55;;;1.08;;
57655;SDS011;43482;53.334;6.744;2022-07-30T09:07:06;1.83;;;1.27;;
57655;SDS011;43482;53.334;6.744;2022-07-30T09:09:32;4.57;;;1.50;;
57655;SDS011;43482;53.334;6.744;2022-07-30T09:11:58;2.75;;;1.27;;
57655;SDS011;43482;53.334;6.744;2022-07-30T09:14:23;3.03;;;1.55;;
57655;SDS011;43482;53.334;6.744;2022-07-30T09:16:54;2.15;;;1.10;;
57655;SDS011;43482;53.334;6.744;2022-07-30T09:19:21;3.17;;;0.93;;
57655;SDS011;43482;53.334;6.744;2022-07-30T09:21:56;1.77;;;1.10;;
57655;SDS011;43482;53.334;6.744;2022-07-30T09:24:26;2.92;;;1.10;;
57655;SDS011;43482;53.334;6.744;2022-07-30T09:26:59;1.95;;;1.20;;
57655;SDS011;43482;53.334;6.744;2022-07-30T09:29:29;1.75;;;0.85;;
57655;SDS011;43482;53.334;6.744;2022-07-30T09:31:59;3.38;;;0.75;;
57655;SDS011;43482;53.334;6.744;2022-07-30T09:34:29;3.53;;;1.00;;
57655;SDS011;43482;53.334;6.744;2022-07-30T09:36:56;4.85;;;1.50;;
57655;SDS011;43482;53.334;6.744;2022-07-30T09:39:33;2.97;;;1.15;;
57655;SDS011;43482;53.334;6.744;2022-07-30T09:42:01;1.80;;;0.93;;
57655;SDS011;43482;53.334;6.744;2022-07-30T09:44:28;1.80;;;1.00;;
57655;SDS011;43482;53.334;6.744;2022-07-30T09:46:55;2.00;;;1.00;;
57655;SDS011;43482;53.334;6.744;2022-07-30T09:49:22;2.47;;;1.30;;
57655;SDS011;43482;53.334;6.744;2022-07-30T09:51:52;1.77;;;1.20;;
57655;SDS011;43482;53.334;6.744;2022-07-30T09:54:18;3.35;;;1.27;;
57655;SDS011;43482;53.334;6.744;2022-07-30T09:56:44;4.75;;;1.17;;
57655;SDS011;43482;53.334;6.744;2022-07-30T09:59:30;2.40;;;1.10;;
57655;SDS011;43482;53.334;6.744;2022-07-30T10:01:57;1.50;;;0.93;;
57655;SDS011;43482;53.334;6.744;2022-07-30T10:04:30;3.67;;;1.58;;
57655;SDS011;43482;53.334;6.744;2022-07-30T10:06:57;1.95;;;1.00;;
57655;SDS011;43482;53.334;6.744;2022-07-30T10:09:24;2.38;;;0.75;;
57655;SDS011;43482;53.334;6.744;2022-07-30T10:11:50;1.52;;;0.88;;
57655;SDS011;43482;53.334;6.744;2022-07-30T10:14:17;2.65;;;1.17;;
57655;SDS011;43482;53.334;6.744;2022-07-30T10:16:43;2.53;;;1.17;;
57655;SDS011;43482;53.334;6.744;2022-07-30T10:19:08;1.23;;;0.73;;
57655;SDS011;43482;53.334;6.744;2022-07-30T10:21:36;3.17;;;0.70;;
57655;SDS011;43482;53.334;6.744;2022-07-30T10:24:01;2.95;;;1.10;;
57655;SDS011;43482;53.334;6.744;2022-07-30T10:26:28;3.33;;;1.00;;
57655;SDS011;43482;53.334;6.744;2022-07-30T10:28:57;2.55;;;1.08;;
57655;SDS011;43482;53.334;6.744;2022-07-30T10:31:24;1.48;;;0.80;;
57655;SDS011;43482;53.334;6.744;2022-07-30T10:33:50;2.90;;;1.00;;
57655;SDS011;43482;53.334;6.744;2022-07-30T10:36:16;2.05;;;1.10;;
57655;SDS011;43482;53.334;6.744;2022-07-30T10:38:43;4.07;;;1.35;;
57655;SDS011;43482;53.334;6.744;2022-07-30T10:41:13;4.25;;;0.98;;
57655;SDS011;43482;53.334;6.744;2022-07-30T10:49:15;2.47;;;1.08;;
57655;SDS011;43482;53.334;6.744;2022-07-30T10:51:45;2.25;;;0.93;;
57655;SDS011;43482;53.334;6.744;2022-07-30T10:57:09;3.15;;;1.00;;
57655;SDS011;43482;53.334;6.744;2022-07-30T11:02:20;1.20;;;0.80;;
57655;SDS011;43482;53.334;6.744;2022-07-30T11:04:47;1.05;;;0.75;;
57655;SDS011;43482;53.334;6.744;2022-07-30T11:09:51;2.05;;;0.93;;
57655;SDS011;43482;53.334;6.744;2022-07-30T11:15:05;2.42;;;1.17;;
57655;SDS011;43482;53.334;6.744;2022-07-30T11:20:27;2.50;;;0.80;;
57655;SDS011;43482;53.334;6.744;2022-07-30T11:23:00;1.88;;;0.85;;
57655;SDS011;43482;53.334;6.744;2022-07-30T11:27:58;4.13;;;1.10;;
57655;SDS011;43482;53.334;6.744;2022-07-30T11:32:57;2.90;;;1.00;;
57655;SDS011;43482;53.334;6.744;2022-07-30T11:35:40;2.00;;;1.02;;
57655;SDS011;43482;53.334;6.744;2022-07-30T11:38:13;1.55;;;0.90;;
57655;SDS011;43482;53.334;6.744;2022-07-30T11:45:48;3.30;;;1.17;;
57655;SDS011;43482;53.334;6.744;2022-07-30T11:48:17;1.88;;;0.80;;
57655;SDS011;43482;53.334;6.744;2022-07-30T11:50:44;4.03;;;1.30;;
57655;SDS011;43482;53.334;6.744;2022-07-30T11:53:19;2.20;;;1.23;;
57655;SDS011;43482;53.334;6.744;2022-07-30T11:55:55;1.85;;;0.82;;
57655;SDS011;43482;53.334;6.744;2022-07-30T11:58:27;3.05;;;1.15;;
57655;SDS011;43482;53.334;6.744;2022-07-30T12:01:13;3.15;;;1.23;;
57655;SDS011;43482;53.334;6.744;2022-07-30T12:03:40;2.92;;;0.90;;
57655;SDS011;43482;53.334;6.744;2022-07-30T12:06:09;1.67;;;1.00;;
57655;SDS011;43482;53.334;6.744;2022-07-30T12:08:47;1.70;;;1.00;;
57655;SDS011;43482;53.334;6.744;2022-07-30T12:11:15;3.38;;;1.30;;
57655;SDS011;43482;53.334;6.744;2022-07-30T12:13:41;1.17;;;1.00;;
57655;SDS011;43482;53.334;6.744;2022-07-30T12:16:08;3.13;;;1.17;;
57655;SDS011;43482;53.334;6.744;2022-07-30T12:18:35;4.53;;;1.25;;
57655;SDS011;43482;53.334;6.744;2022-07-30T12:21:01;1.33;;;0.70;;
57655;SDS011;43482;53.334;6.744;2022-07-30T12:23:29;1.52;;;0.90;;
57655;SDS011;43482;53.334;6.744;2022-07-30T12:25:55;3.10;;;1.13;;
57655;SDS011;43482;53.334;6.744;2022-07-30T12:28:22;2.05;;;0.80;;
57655;SDS011;43482;53.334;6.744;2022-07-30T12:30:57;1.88;;;1.10;;
57655;SDS011;43482;53.334;6.744;2022-07-30T12:33:23;2.85;;;0.80;;
57655;SDS011;43482;53.334;6.744;2022-07-30T12:38:16;0.98;;;0.60;;
57655;SDS011;43482;53.334;6.744;2022-07-30T12:46:11;1.02;;;0.75;;
57655;SDS011;43482;53.334;6.744;2022-07-30T12:48:48;1.58;;;0.73;;
57655;SDS011;43482;53.334;6.744;2022-07-30T12:51:13;2.00;;;0.90;;
57655;SDS011;43482;53.334;6.744;2022-07-30T12:53:39;1.83;;;0.88;;
57655;SDS011;43482;53.334;6.744;2022-07-30T12:56:11;2.45;;;0.80;;
57655;SDS011;43482;53.334;6.744;2022-07-30T12:58:38;3.65;;;1.10;;
57655;SDS011;43482;53.334;6.744;2022-07-30T13:01:04;1.50;;;1.10;;
57655;SDS011;43482;53.334;6.744;2022-07-30T13:03:30;3.15;;;1.23;;
57655;SDS011;43482;53.334;6.744;2022-07-30T13:06:24;1.88;;;0.80;;
57655;SDS011;43482;53.334;6.744;2022-07-30T13:08:56;1.10;;;0.80;;
57655;SDS011;43482;53.334;6.744;2022-07-30T13:11:23;1.38;;;1.10;;
57655;SDS011;43482;53.334;6.744;2022-07-30T13:13:49;1.67;;;0.75;;
57655;SDS011;43482;53.334;6.744;2022-07-30T13:16:15;1.33;;;0.90;;
57655;SDS011;43482;53.334;6.744;2022-07-30T13:18:41;2.75;;;0.80;;
57655;SDS011;43482;53.334;6.744;2022-07-30T13:21:06;1.17;;;0.70;;
57655;SDS011;43482;53.334;6.744;2022-07-30T13:23:33;1.42;;;0.60;;
57655;SDS011;43482;53.334;6.744;2022-07-30T13:25:59;1.80;;;1.10;;
57655;SDS011;43482;53.334;6.744;2022-07-30T13:28:25;2.33;;;1.17;;
57655;SDS011;43482;53.334;6.744;2022-07-30T13:30:50;0.77;;;0.55;;
57655;SDS011;43482;53.334;6.744;2022-07-30T13:33:16;1.52;;;0.73;;
57655;SDS011;43482;53.334;6.744;2022-07-30T13:35:41;1.45;;;0.90;;
57655;SDS011;43482;53.334;6.744;2022-07-30T13:38:07;1.63;;;0.90;;
57655;SDS011;43482;53.334;6.744;2022-07-30T13:40:35;5.68;;;0.98;;
57655;SDS011;43482;53.334;6.744;2022-07-30T13:43:01;2.65;;;0.82;;
57655;SDS011;43482;53.334;6.744;2022-07-30T13:45:28;2.42;;;0.77;;
57655;SDS011;43482;53.334;6.744;2022-07-30T13:47:54;1.45;;;0.88;;
57655;SDS011;43482;53.334;6.744;2022-07-30T13:50:19;2.90;;;1.20;;
57655;SDS011;43482;53.334;6.744;2022-07-30T13:52:45;3.97;;;1.15;;
57655;SDS011;43482;53.334;6.744;2022-07-30T13:55:10;0.80;;;0.45;;
57655;SDS011;43482;53.334;6.744;2022-07-30T13:57:36;2.25;;;0.93;;
57655;SDS011;43482;53.334;6.744;2022-07-30T14:00:02;1.08;;;0.73;;
57655;SDS011;43482;53.334;6.744;2022-07-30T14:02:29;1.15;;;0.85;;
57655;SDS011;43482;53.334;6.744;2022-07-30T14:04:55;1.65;;;0.82;;
57655;SDS011;43482;53.334;6.744;2022-07-30T14:07:20;0.95;;;0.75;;
57655;SDS011;43482;53.334;6.744;2022-07-30T14:09:46;1.55;;;0.80;;
57655;SDS011;43482;53.334;6.744;2022-07-30T14:12:11;2.35;;;1.00;;
57655;SDS011;43482;53.334;6.744;2022-07-30T14:14:36;1.98;;;0.90;;
57655;SDS011;43482;53.334;6.744;2022-07-30T14:17:02;3.47;;;0.93;;
57655;SDS011;43482;53.334;6.744;2022-07-30T14:19:27;1.38;;;0.60;;
57655;SDS011;43482;53.334;6.744;2022-07-30T14:21:53;2.08;;;1.00;;
57655;SDS011;43482;53.334;6.744;2022-07-30T14:24:19;1.90;;;0.80;;
57655;SDS011;43482;53.334;6.744;2022-07-30T14:26:46;2.10;;;1.10;;
57655;SDS011;43482;53.334;6.744;2022-07-30T14:29:11;1.33;;;0.85;;
57655;SDS011;43482;53.334;6.744;2022-07-30T14:31:36;1.33;;;0.50;;
57655;SDS011;43482;53.334;6.744;2022-07-30T14:34:02;4.57;;;1.52;;
57655;SDS011;43482;53.334;6.744;2022-07-30T14:36:28;1.00;;;0.70;;
57655;SDS011;43482;53.334;6.744;2022-07-30T14:38:57;3.70;;;0.98;;
57655;SDS011;43482;53.334;6.744;2022-07-30T14:41:23;3.72;;;0.93;;
57655;SDS011;43482;53.334;6.744;2022-07-30T14:43:50;1.52;;;0.85;;
57655;SDS011;43482;53.334;6.744;2022-07-30T14:46:16;3.75;;;0.95;;
57655;SDS011;43482;53.334;6.744;2022-07-30T14:48:42;2.47;;;0.77;;
57655;SDS011;43482;53.334;6.744;2022-07-30T14:51:07;1.55;;;1.00;;
57655;SDS011;43482;53.334;6.744;2022-07-30T14:53:33;1.92;;;1.00;;
57655;SDS011;43482;53.334;6.744;2022-07-30T14:55:58;0.93;;;0.68;;
57655;SDS011;43482;53.334;6.744;2022-07-30T14:58:24;0.98;;;0.85;;
57655;SDS011;43482;53.334;6.744;2022-07-30T15:00:50;1.52;;;0.60;;
57655;SDS011;43482;53.334;6.744;2022-07-30T15:03:15;0.93;;;0.50;;
57655;SDS011;43482;53.334;6.744;2022-07-30T15:05:41;3.88;;;1.30;;
57655;SDS011;43482;53.334;6.744;2022-07-30T15:08:06;3.22;;;2.50;;
57655;SDS011;43482;53.334;6.744;2022-07-30T15:10:32;2.00;;;0.77;;
57655;SDS011;43482;53.334;6.744;2022-07-30T15:12:57;1.30;;;0.68;;
57655;SDS011;43482;53.334;6.744;2022-07-30T15:15:23;3.00;;;0.68;;
57655;SDS011;43482;53.334;6.744;2022-07-30T15:17:48;2.55;;;0.93;;
57655;SDS011;43482;53.334;6.744;2022-07-30T15:20:14;2.03;;;0.75;;
57655;SDS011;43482;53.334;6.744;2022-07-30T15:22:39;1.45;;;0.60;;
57655;SDS011;43482;53.334;6.744;2022-07-30T15:25:05;3.92;;;0.90;;
57655;SDS011;43482;53.334;6.744;2022-07-30T15:27:31;1.92;;;1.13;;
57655;SDS011;43482;53.334;6.744;2022-07-30T15:29:56;3.28;;;1.00;;
57655;SDS011;43482;53.334;6.744;2022-07-30T15:32:22;2.28;;;0.70;;